Xinxiang, China
Current Conditions -  °F | °C
As of 3:00 PM on Friday 28 Nov 2014 (Local Time) from ZHCC Reporting Station
Haze Haze  
Wind Chill: 48°   Ceiling: Unl
Heat Index: 48°   Visibility: 2.5mi
Dew Point: 37°   Wind: 2mph
Humidity: 66%   Direction: NA
Pressure: 30.12"   Gusts: NA
Location:  35.32°N, 113.87°E
Report Text: ZHCC 280700Z VRB01MPS 4000 HZ NSC 09/03 Q1020 NOSIG
Loading
Personal Weather Stations






























Interactive Weather Map New forecast layout! Learn more

10-Day Weather Forecast

Advertisements
Track Severe Weather on mobile